Погода Гослинувна неделю

Нижнесилезское воеводство, Польша

16 - 22 июля
  • 16июля
    Сегодня
    +17°
    +29°
    Практически безоблачно
    ВремяПогодаТемператураВлажностьДавлениеВетер, м/сВероятность осадков
    02:00Ясно и безоблачно+20°C76 %749 мм2.1 м/с2 %
    05:00Облачно с прояснениями+19°C83 %749 мм1.4 м/с2 %
    08:00Облачно с прояснениями+23°C77 %748 мм2.0 м/с11 %
    11:00Облачно с прояснениями+26°C71 %749 мм4.1 м/с33 %
    14:00Практически безоблачно+26°C57 %749 мм3.3 м/с18 %
    17:00Ясно и безоблачно+29°C50 %749 мм3.5 м/с6 %
    20:00Облачно с прояснениями+26°C63 %750 мм2.6 м/с2 %
    23:00Облачно с прояснениями+22°C65 %751 мм1.7 м/с2 %
  • 17июля
    Среда
    +15°
    +28°
    Небольшая облачность
    ВремяПогодаТемператураВлажностьДавлениеВетер, м/сВероятность осадков
    02:00Ясно и безоблачно+20°C63 %752 мм2.6 м/с2 %
    05:00Ясно и безоблачно+18°C72 %753 мм1.9 м/с2 %
    08:00Ясно и безоблачно+21°C66 %755 мм2.8 м/с2 %
    11:00Облачно с прояснениями+25°C53 %755 мм3.4 м/с2 %
    14:00Небольшая облачность+26°C44 %755 мм3.5 м/с2 %
    17:00Небольшая облачность+27°C37 %754 мм3.4 м/с3 %
    20:00Ясно и безоблачно+24°C52 %755 мм2.8 м/с3 %
    23:00Ясно и безоблачно+19°C72 %756 мм1.3 м/с2 %
  • 18июля
    Четверг
    +15°
    +27°
    Небольшая облачность
    ВремяПогодаТемператураВлажностьДавлениеВетер, м/сВероятность осадков
    02:00Ясно и безоблачно+17°C78 %756 мм1.6 м/с2 %
    05:00Ясно и безоблачно+15°C82 %756 мм1.1 м/с2 %
    08:00Ясно и безоблачно+20°C70 %757 мм1.8 м/с2 %
    11:00Небольшая облачность+24°C53 %758 мм3.1 м/с2 %
    14:00Небольшая облачность+26°C45 %757 мм2.9 м/с3 %
    17:00Практически безоблачно+27°C40 %756 мм2.6 м/с2 %
    20:00Небольшая облачность+24°C56 %756 мм2.6 м/с2 %
    23:00Облачно с прояснениями+19°C72 %757 мм1.0 м/с2 %
  • 19июля
    Пятница
    +14°
    +28°
    Небольшая облачность
    ВремяПогодаТемператураВлажностьДавлениеВетер, м/сВероятность осадков
    02:00Небольшая облачность+17°C76 %757 мм1.2 м/с2 %
    05:00Небольшая облачность+16°C80 %756 мм0.6 м/с2 %
    08:00Облачно с прояснениями+20°C72 %757 мм1.3 м/с2 %
    11:00Ясно и безоблачно+26°C52 %757 мм3.0 м/с2 %
    14:00Небольшая облачность+26°C44 %756 мм2.9 м/с3 %
    17:00Практически безоблачно+28°C42 %755 мм2.7 м/с4 %
    20:00Ясно и безоблачно+25°C58 %754 мм2.7 м/с2 %
    23:00Ясно и безоблачно+19°C79 %755 мм1.3 м/с2 %
  • 20июля
    Суббота
    +16°
    +29°
    Ясно и безоблачно
    ВремяПогодаТемператураВлажностьДавлениеВетер, м/сВероятность осадков
    02:00Ясно и безоблачно+18°C77 %754 мм1.6 м/с2 %
    05:00Ясно и безоблачно+15°C88 %754 мм0.5 м/с2 %
    08:00Ясно и безоблачно+21°C74 %754 мм1.3 м/с2 %
    11:00Практически безоблачно+27°C47 %754 мм2.9 м/с2 %
    14:00Ясно и безоблачно+28°C42 %753 мм3.0 м/с2 %
    17:00Ясно и безоблачно+29°C40 %752 мм2.8 м/с3 %
    20:00Ясно и безоблачно+26°C54 %751 мм2.6 м/с2 %
    23:00Ясно и безоблачно+20°C72 %751 мм1.4 м/с2 %
Мы используем cookies
Соглашаюсь